sensor_id;sensor_type;location;lat;lon;timestamp;P1;durP1;ratioP1;P2;durP2;ratioP2
29466;SDS011;60968;37.490;-122.288;2023-05-16T00:02:20;5.43;;;1.80;;
29466;SDS011;60968;37.490;-122.288;2023-05-16T00:05:21;4.67;;;1.30;;
29466;SDS011;60968;37.490;-122.288;2023-05-16T00:08:22;4.40;;;1.20;;
29466;SDS011;60968;37.490;-122.288;2023-05-16T00:11:23;4.00;;;1.13;;
29466;SDS011;60968;37.490;-122.288;2023-05-16T00:14:24;4.67;;;1.33;;
29466;SDS011;60968;37.490;-122.288;2023-05-16T00:17:28;2.87;;;1.20;;
29466;SDS011;60968;37.490;-122.288;2023-05-16T00:20:29;3.47;;;1.20;;
29466;SDS011;60968;37.490;-122.288;2023-05-16T00:23:30;4.40;;;1.23;;
29466;SDS011;60968;37.490;-122.288;2023-05-16T00:26:31;2.33;;;1.17;;
29466;SDS011;60968;37.490;-122.288;2023-05-16T00:29:32;5.23;;;1.17;;
29466;SDS011;60968;37.490;-122.288;2023-05-16T00:32:36;5.53;;;1.30;;
29466;SDS011;60968;37.490;-122.288;2023-05-16T00:35:37;2.37;;;1.20;;
29466;SDS011;60968;37.490;-122.288;2023-05-16T00:38:38;3.83;;;1.07;;
29466;SDS011;60968;37.490;-122.288;2023-05-16T00:41:39;3.80;;;1.20;;
29466;SDS011;60968;37.490;-122.288;2023-05-16T00:44:40;3.67;;;1.40;;
29466;SDS011;60968;37.490;-122.288;2023-05-16T00:47:40;7.47;;;1.30;;
29466;SDS011;60968;37.490;-122.288;2023-05-16T00:50:41;2.63;;;1.10;;
29466;SDS011;60968;37.490;-122.288;2023-05-16T00:53:42;7.57;;;1.50;;
29466;SDS011;60968;37.490;-122.288;2023-05-16T00:56:43;3.13;;;1.03;;
29466;SDS011;60968;37.490;-122.288;2023-05-16T00:59:45;2.53;;;0.90;;
29466;SDS011;60968;37.490;-122.288;2023-05-16T01:02:46;4.30;;;1.20;;
29466;SDS011;60968;37.490;-122.288;2023-05-16T01:05:47;3.50;;;1.40;;
29466;SDS011;60968;37.490;-122.288;2023-05-16T01:08:48;5.53;;;1.50;;
29466;SDS011;60968;37.490;-122.288;2023-05-16T01:11:59;3.30;;;1.40;;
29466;SDS011;60968;37.490;-122.288;2023-05-16T01:18:11;4.47;;;1.23;;
29466;SDS011;60968;37.490;-122.288;2023-05-16T01:25:37;4.77;;;1.13;;
29466;SDS011;60968;37.490;-122.288;2023-05-16T01:28:45;4.13;;;1.20;;
29466;SDS011;60968;37.490;-122.288;2023-05-16T01:31:47;2.50;;;1.13;;
29466;SDS011;60968;37.490;-122.288;2023-05-16T01:34:49;5.23;;;1.50;;
29466;SDS011;60968;37.490;-122.288;2023-05-16T01:41:12;5.73;;;1.30;;
29466;SDS011;60968;37.490;-122.288;2023-05-16T01:47:35;2.87;;;1.03;;
29466;SDS011;60968;37.490;-122.288;2023-05-16T01:50:44;3.97;;;1.37;;
29466;SDS011;60968;37.490;-122.288;2023-05-16T01:53:47;1.97;;;1.10;;
29466;SDS011;60968;37.490;-122.288;2023-05-16T01:56:52;5.73;;;1.27;;
29466;SDS011;60968;37.490;-122.288;2023-05-16T01:59:56;5.07;;;1.40;;
29466;SDS011;60968;37.490;-122.288;2023-05-16T02:02:57;3.33;;;1.00;;
29466;SDS011;60968;37.490;-122.288;2023-05-16T02:05:58;3.73;;;1.20;;
29466;SDS011;60968;37.490;-122.288;2023-05-16T02:08:59;2.13;;;1.30;;
29466;SDS011;60968;37.490;-122.288;2023-05-16T02:12:00;2.97;;;1.07;;
29466;SDS011;60968;37.490;-122.288;2023-05-16T02:15:01;5.50;;;1.43;;
29466;SDS011;60968;37.490;-122.288;2023-05-16T02:18:02;5.70;;;1.43;;
29466;SDS011;60968;37.490;-122.288;2023-05-16T02:21:03;3.60;;;1.30;;
29466;SDS011;60968;37.490;-122.288;2023-05-16T02:24:04;3.60;;;1.20;;
29466;SDS011;60968;37.490;-122.288;2023-05-16T02:27:06;1.97;;;1.20;;
29466;SDS011;60968;37.490;-122.288;2023-05-16T02:30:08;2.90;;;1.03;;
29466;SDS011;60968;37.490;-122.288;2023-05-16T02:33:12;3.87;;;1.40;;
29466;SDS011;60968;37.490;-122.288;2023-05-16T02:36:12;2.13;;;1.23;;
29466;SDS011;60968;37.490;-122.288;2023-05-16T02:39:13;2.93;;;1.10;;
29466;SDS011;60968;37.490;-122.288;2023-05-16T02:42:14;3.87;;;1.20;;
29466;SDS011;60968;37.490;-122.288;2023-05-16T02:45:15;4.47;;;1.63;;
29466;SDS011;60968;37.490;-122.288;2023-05-16T02:48:16;2.50;;;1.23;;
29466;SDS011;60968;37.490;-122.288;2023-05-16T02:51:18;4.40;;;1.13;;
29466;SDS011;60968;37.490;-122.288;2023-05-16T02:54:20;2.90;;;1.00;;
29466;SDS011;60968;37.490;-122.288;2023-05-16T02:57:21;5.50;;;1.50;;
29466;SDS011;60968;37.490;-122.288;2023-05-16T03:00:22;5.50;;;1.60;;
29466;SDS011;60968;37.490;-122.288;2023-05-16T03:03:23;5.80;;;1.40;;
29466;SDS011;60968;37.490;-122.288;2023-05-16T03:06:24;6.07;;;1.53;;
29466;SDS011;60968;37.490;-122.288;2023-05-16T03:09:25;4.23;;;1.30;;
29466;SDS011;60968;37.490;-122.288;2023-05-16T03:12:26;5.73;;;1.50;;
29466;SDS011;60968;37.490;-122.288;2023-05-16T03:15:27;3.47;;;1.20;;
29466;SDS011;60968;37.490;-122.288;2023-05-16T03:18:28;3.10;;;1.40;;
29466;SDS011;60968;37.490;-122.288;2023-05-16T03:21:28;3.47;;;1.20;;
29466;SDS011;60968;37.490;-122.288;2023-05-16T03:24:29;4.83;;;1.43;;
29466;SDS011;60968;37.490;-122.288;2023-05-16T03:27:30;1.73;;;1.47;;
29466;SDS011;60968;37.490;-122.288;2023-05-16T03:30:31;3.43;;;1.43;;
29466;SDS011;60968;37.490;-122.288;2023-05-16T03:33:32;9.63;;;1.60;;
29466;SDS011;60968;37.490;-122.288;2023-05-16T03:36:33;2.63;;;1.30;;
29466;SDS011;60968;37.490;-122.288;2023-05-16T03:39:34;4.40;;;1.40;;
29466;SDS011;60968;37.490;-122.288;2023-05-16T03:42:34;3.93;;;1.47;;
29466;SDS011;60968;37.490;-122.288;2023-05-16T03:45:35;7.87;;;1.30;;
29466;SDS011;60968;37.490;-122.288;2023-05-16T03:48:36;4.80;;;1.70;;
29466;SDS011;60968;37.490;-122.288;2023-05-16T03:51:37;2.67;;;1.37;;
29466;SDS011;60968;37.490;-122.288;2023-05-16T03:54:38;6.57;;;1.70;;
29466;SDS011;60968;37.490;-122.288;2023-05-16T03:57:39;5.27;;;1.33;;
29466;SDS011;60968;37.490;-122.288;2023-05-16T04:00:40;2.23;;;1.20;;
29466;SDS011;60968;37.490;-122.288;2023-05-16T04:03:41;7.40;;;1.50;;
29466;SDS011;60968;37.490;-122.288;2023-05-16T04:06:42;8.80;;;1.57;;
29466;SDS011;60968;37.490;-122.288;2023-05-16T04:09:43;5.23;;;1.50;;
29466;SDS011;60968;37.490;-122.288;2023-05-16T04:12:43;7.40;;;2.03;;
29466;SDS011;60968;37.490;-122.288;2023-05-16T04:15:44;3.10;;;1.20;;
29466;SDS011;60968;37.490;-122.288;2023-05-16T04:18:45;3.37;;;1.40;;
29466;SDS011;60968;37.490;-122.288;2023-05-16T04:21:46;3.40;;;1.20;;
29466;SDS011;60968;37.490;-122.288;2023-05-16T04:24:47;6.00;;;1.50;;
29466;SDS011;60968;37.490;-122.288;2023-05-16T04:27:48;4.30;;;1.17;;
29466;SDS011;60968;37.490;-122.288;2023-05-16T04:30:49;5.97;;;1.40;;
29466;SDS011;60968;37.490;-122.288;2023-05-16T04:33:50;5.63;;;1.37;;
29466;SDS011;60968;37.490;-122.288;2023-05-16T04:36:51;3.63;;;1.30;;
29466;SDS011;60968;37.490;-122.288;2023-05-16T04:39:51;5.60;;;1.53;;
29466;SDS011;60968;37.490;-122.288;2023-05-16T04:42:52;4.07;;;1.57;;
29466;SDS011;60968;37.490;-122.288;2023-05-16T04:45:53;5.77;;;1.70;;
29466;SDS011;60968;37.490;-122.288;2023-05-16T04:48:54;4.70;;;1.53;;
29466;SDS011;60968;37.490;-122.288;2023-05-16T04:51:55;5.47;;;1.43;;
29466;SDS011;60968;37.490;-122.288;2023-05-16T04:54:56;2.53;;;1.57;;
29466;SDS011;60968;37.490;-122.288;2023-05-16T04:57:57;3.93;;;1.67;;
29466;SDS011;60968;37.490;-122.288;2023-05-16T05:00:57;6.80;;;1.97;;
29466;SDS011;60968;37.490;-122.288;2023-05-16T05:03:58;3.60;;;1.50;;
29466;SDS011;60968;37.490;-122.288;2023-05-16T05:06:59;4.33;;;1.47;;
29466;SDS011;60968;37.490;-122.288;2023-05-16T05:10:00;2.70;;;1.37;;
29466;SDS011;60968;37.490;-122.288;2023-05-16T05:13:01;7.47;;;1.80;;
29466;SDS011;60968;37.490;-122.288;2023-05-16T05:16:02;4.83;;;2.10;;
29466;SDS011;60968;37.490;-122.288;2023-05-16T05:19:03;2.80;;;1.37;;
29466;SDS011;60968;37.490;-122.288;2023-05-16T05:22:03;5.17;;;1.50;;
29466;SDS011;60968;37.490;-122.288;2023-05-16T05:25:05;7.90;;;1.87;;
29466;SDS011;60968;37.490;-122.288;2023-05-16T05:28:06;4.23;;;1.63;;
29466;SDS011;60968;37.490;-122.288;2023-05-16T05:31:06;3.03;;;1.77;;
29466;SDS011;60968;37.490;-122.288;2023-05-16T05:34:07;5.17;;;1.63;;
29466;SDS011;60968;37.490;-122.288;2023-05-16T05:37:08;5.67;;;1.60;;
29466;SDS011;60968;37.490;-122.288;2023-05-16T05:40:09;4.63;;;1.87;;
29466;SDS011;60968;37.490;-122.288;2023-05-16T05:43:10;4.63;;;1.60;;
29466;SDS011;60968;37.490;-122.288;2023-05-16T05:46:11;6.50;;;1.93;;
29466;SDS011;60968;37.490;-122.288;2023-05-16T05:49:12;2.50;;;1.57;;
29466;SDS011;60968;37.490;-122.288;2023-05-16T05:52:13;4.13;;;1.73;;
29466;SDS011;60968;37.490;-122.288;2023-05-16T05:55:14;3.10;;;1.50;;
29466;SDS011;60968;37.490;-122.288;2023-05-16T05:58:14;7.77;;;1.93;;
29466;SDS011;60968;37.490;-122.288;2023-05-16T06:01:15;5.40;;;1.83;;
29466;SDS011;60968;37.490;-122.288;2023-05-16T06:04:16;2.80;;;1.50;;
29466;SDS011;60968;37.490;-122.288;2023-05-16T06:07:20;7.10;;;2.27;;
29466;SDS011;60968;37.490;-122.288;2023-05-16T06:10:21;5.10;;;1.77;;
29466;SDS011;60968;37.490;-122.288;2023-05-16T06:13:22;8.23;;;2.10;;
29466;SDS011;60968;37.490;-122.288;2023-05-16T06:16:23;5.20;;;1.80;;
29466;SDS011;60968;37.490;-122.288;2023-05-16T06:19:25;6.43;;;2.50;;
29466;SDS011;60968;37.490;-122.288;2023-05-16T06:22:25;8.27;;;2.40;;
29466;SDS011;60968;37.490;-122.288;2023-05-16T06:25:26;7.83;;;2.60;;
29466;SDS011;60968;37.490;-122.288;2023-05-16T06:28:27;5.53;;;2.33;;
29466;SDS011;60968;37.490;-122.288;2023-05-16T06:31:28;4.70;;;2.43;;
29466;SDS011;60968;37.490;-122.288;2023-05-16T06:34:30;3.97;;;1.77;;
29466;SDS011;60968;37.490;-122.288;2023-05-16T06:37:31;3.93;;;1.90;;
29466;SDS011;60968;37.490;-122.288;2023-05-16T06:40:33;5.23;;;1.70;;
29466;SDS011;60968;37.490;-122.288;2023-05-16T06:43:34;8.57;;;2.10;;
29466;SDS011;60968;37.490;-122.288;2023-05-16T06:46:34;4.63;;;2.23;;
29466;SDS011;60968;37.490;-122.288;2023-05-16T06:49:35;4.70;;;1.90;;
29466;SDS011;60968;37.490;-122.288;2023-05-16T06:52:36;3.87;;;1.67;;
29466;SDS011;60968;37.490;-122.288;2023-05-16T06:55:37;4.83;;;1.90;;
29466;SDS011;60968;37.490;-122.288;2023-05-16T06:58:38;4.47;;;2.17;;
29466;SDS011;60968;37.490;-122.288;2023-05-16T07:01:39;3.63;;;1.83;;
29466;SDS011;60968;37.490;-122.288;2023-05-16T07:04:39;4.43;;;2.20;;
29466;SDS011;60968;37.490;-122.288;2023-05-16T07:07:40;4.30;;;2.23;;
29466;SDS011;60968;37.490;-122.288;2023-05-16T07:10:41;7.27;;;2.40;;
29466;SDS011;60968;37.490;-122.288;2023-05-16T07:13:42;4.63;;;2.37;;
29466;SDS011;60968;37.490;-122.288;2023-05-16T07:16:43;4.07;;;2.40;;
29466;SDS011;60968;37.490;-122.288;2023-05-16T07:19:43;3.30;;;2.20;;
29466;SDS011;60968;37.490;-122.288;2023-05-16T07:22:46;5.37;;;2.50;;
29466;SDS011;60968;37.490;-122.288;2023-05-16T07:25:47;7.83;;;2.57;;
29466;SDS011;60968;37.490;-122.288;2023-05-16T07:28:48;7.73;;;3.50;;
29466;SDS011;60968;37.490;-122.288;2023-05-16T07:31:49;5.23;;;3.10;;
29466;SDS011;60968;37.490;-122.288;2023-05-16T07:34:50;5.20;;;2.40;;
29466;SDS011;60968;37.490;-122.288;2023-05-16T07:37:51;5.97;;;2.40;;
29466;SDS011;60968;37.490;-122.288;2023-05-16T07:40:52;5.73;;;2.13;;
29466;SDS011;60968;37.490;-122.288;2023-05-16T07:43:53;6.97;;;3.57;;
29466;SDS011;60968;37.490;-122.288;2023-05-16T07:46:53;8.10;;;3.47;;
29466;SDS011;60968;37.490;-122.288;2023-05-16T07:49:54;7.13;;;2.83;;
29466;SDS011;60968;37.490;-122.288;2023-05-16T07:52:55;9.37;;;4.03;;
29466;SDS011;60968;37.490;-122.288;2023-05-16T07:55:56;14.37;;;7.03;;
29466;SDS011;60968;37.490;-122.288;2023-05-16T07:58:57;10.73;;;5.10;;
29466;SDS011;60968;37.490;-122.288;2023-05-16T08:01:58;7.80;;;4.40;;
29466;SDS011;60968;37.490;-122.288;2023-05-16T08:04:59;9.47;;;4.77;;
29466;SDS011;60968;37.490;-122.288;2023-05-16T08:08:00;8.47;;;5.17;;
29466;SDS011;60968;37.490;-122.288;2023-05-16T08:11:01;15.00;;;6.40;;
29466;SDS011;60968;37.490;-122.288;2023-05-16T08:14:02;13.83;;;6.20;;
29466;SDS011;60968;37.490;-122.288;2023-05-16T08:17:03;14.30;;;7.50;;
29466;SDS011;60968;37.490;-122.288;2023-05-16T08:20:04;18.00;;;8.63;;
29466;SDS011;60968;37.490;-122.288;2023-05-16T08:23:05;15.73;;;9.13;;
29466;SDS011;60968;37.490;-122.288;2023-05-16T08:26:09;14.30;;;8.83;;
29466;SDS011;60968;37.490;-122.288;2023-05-16T08:29:10;17.10;;;8.80;;
29466;SDS011;60968;37.490;-122.288;2023-05-16T08:32:11;16.63;;;8.63;;
29466;SDS011;60968;37.490;-122.288;2023-05-16T08:35:12;17.47;;;9.13;;
29466;SDS011;60968;37.490;-122.288;2023-05-16T08:38:13;13.90;;;9.17;;
29466;SDS011;60968;37.490;-122.288;2023-05-16T08:41:14;16.57;;;9.37;;
29466;SDS011;60968;37.490;-122.288;2023-05-16T08:44:14;21.77;;;9.50;;
29466;SDS011;60968;37.490;-122.288;2023-05-16T08:47:18;17.43;;;8.67;;
29466;SDS011;60968;37.490;-122.288;2023-05-16T08:50:21;19.97;;;11.07;;
29466;SDS011;60968;37.490;-122.288;2023-05-16T08:53:25;20.37;;;11.33;;
29466;SDS011;60968;37.490;-122.288;2023-05-16T08:56:32;18.13;;;10.73;;
29466;SDS011;60968;37.490;-122.288;2023-05-16T08:59:33;18.67;;;11.07;;
29466;SDS011;60968;37.490;-122.288;2023-05-16T09:02:35;18.77;;;10.13;;
29466;SDS011;60968;37.490;-122.288;2023-05-16T09:05:36;17.93;;;10.60;;
29466;SDS011;60968;37.490;-122.288;2023-05-16T09:08:38;40.73;;;12.43;;
29466;SDS011;60968;37.490;-122.288;2023-05-16T09:11:38;21.60;;;11.87;;
29466;SDS011;60968;37.490;-122.288;2023-05-16T09:14:41;20.07;;;10.97;;
29466;SDS011;60968;37.490;-122.288;2023-05-16T09:17:42;18.00;;;11.33;;
29466;SDS011;60968;37.490;-122.288;2023-05-16T09:20:45;30.47;;;12.13;;
29466;SDS011;60968;37.490;-122.288;2023-05-16T09:23:48;39.83;;;14.50;;
29466;SDS011;60968;37.490;-122.288;2023-05-16T09:26:49;129.67;;;17.60;;
29466;SDS011;60968;37.490;-122.288;2023-05-16T09:29:50;75.53;;;13.70;;
29466;SDS011;60968;37.490;-122.288;2023-05-16T09:32:51;106.93;;;14.93;;
29466;SDS011;60968;37.490;-122.288;2023-05-16T09:38:56;78.57;;;14.47;;
29466;SDS011;60968;37.490;-122.288;2023-05-16T09:41:57;37.97;;;13.50;;
29466;SDS011;60968;37.490;-122.288;2023-05-16T09:44:58;23.70;;;13.00;;
29466;SDS011;60968;37.490;-122.288;2023-05-16T09:48:00;49.47;;;15.43;;
29466;SDS011;60968;37.490;-122.288;2023-05-16T09:51:05;90.60;;;16.30;;
29466;SDS011;60968;37.490;-122.288;2023-05-16T09:54:07;37.73;;;15.50;;
29466;SDS011;60968;37.490;-122.288;2023-05-16T09:57:07;70.80;;;15.10;;
29466;SDS011;60968;37.490;-122.288;2023-05-16T10:00:09;49.13;;;14.37;;
29466;SDS011;60968;37.490;-122.288;2023-05-16T10:03:10;26.73;;;13.90;;
29466;SDS011;60968;37.490;-122.288;2023-05-16T10:06:12;59.27;;;14.73;;
29466;SDS011;60968;37.490;-122.288;2023-05-16T10:09:14;124.60;;;16.43;;
29466;SDS011;60968;37.490;-122.288;2023-05-16T10:12:16;113.57;;;16.00;;
29466;SDS011;60968;37.490;-122.288;2023-05-16T10:15:19;27.60;;;13.90;;
29466;SDS011;60968;37.490;-122.288;2023-05-16T10:18:20;28.70;;;14.20;;
29466;SDS011;60968;37.490;-122.288;2023-05-16T10:21:22;27.80;;;14.47;;
29466;SDS011;60968;37.490;-122.288;2023-05-16T10:24:30;28.70;;;15.37;;
29466;SDS011;60968;37.490;-122.288;2023-05-16T10:27:43;122.33;;;15.40;;
29466;SDS011;60968;37.490;-122.288;2023-05-16T10:30:45;58.67;;;12.90;;
29466;SDS011;60968;37.490;-122.288;2023-05-16T10:33:46;224.50;;;18.47;;
29466;SDS011;60968;37.490;-122.288;2023-05-16T10:36:47;76.43;;;14.00;;
29466;SDS011;60968;37.490;-122.288;2023-05-16T10:39:50;117.90;;;14.77;;
29466;SDS011;60968;37.490;-122.288;2023-05-16T10:43:09;191.53;;;17.17;;
29466;SDS011;60968;37.490;-122.288;2023-05-16T10:46:10;50.67;;;12.90;;
29466;SDS011;60968;37.490;-122.288;2023-05-16T10:49:21;293.90;;;19.03;;
29466;SDS011;60968;37.490;-122.288;2023-05-16T10:52:23;112.13;;;17.73;;
29466;SDS011;60968;37.490;-122.288;2023-05-16T10:55:33;88.90;;;15.10;;
29466;SDS011;60968;37.490;-122.288;2023-05-16T11:01:39;578.97;;;33.13;;
29466;SDS011;60968;37.490;-122.288;2023-05-16T11:04:49;168.10;;;19.97;;
29466;SDS011;60968;37.490;-122.288;2023-05-16T11:08:01;249.03;;;21.80;;
29466;SDS011;60968;37.490;-122.288;2023-05-16T11:14:43;452.00;;;27.00;;
29466;SDS011;60968;37.490;-122.288;2023-05-16T11:18:02;118.47;;;20.37;;
29466;SDS011;60968;37.490;-122.288;2023-05-16T11:21:13;175.67;;;20.27;;
29466;SDS011;60968;37.490;-122.288;2023-05-16T11:24:31;686.30;;;46.30;;
29466;SDS011;60968;37.490;-122.288;2023-05-16T11:27:34;173.70;;;22.67;;
29466;SDS011;60968;37.490;-122.288;2023-05-16T11:30:46;70.53;;;18.40;;
29466;SDS011;60968;37.490;-122.288;2023-05-16T11:33:49;302.47;;;24.13;;
29466;SDS011;60968;37.490;-122.288;2023-05-16T11:36:51;140.30;;;22.33;;
29466;SDS011;60968;37.490;-122.288;2023-05-16T11:39:52;170.97;;;19.77;;
29466;SDS011;60968;37.490;-122.288;2023-05-16T11:42:53;306.00;;;21.80;;
29466;SDS011;60968;37.490;-122.288;2023-05-16T11:45:53;235.13;;;23.03;;
29466;SDS011;60968;37.490;-122.288;2023-05-16T11:48:54;73.03;;;19.77;;
29466;SDS011;60968;37.490;-122.288;2023-05-16T11:51:55;43.50;;;19.00;;
29466;SDS011;60968;37.490;-122.288;2023-05-16T11:54:56;119.33;;;21.00;;
29466;SDS011;60968;37.490;-122.288;2023-05-16T11:57:57;57.77;;;19.97;;
29466;SDS011;60968;37.490;-122.288;2023-05-16T12:00:58;54.00;;;19.80;;
29466;SDS011;60968;37.490;-122.288;2023-05-16T12:04:09;91.63;;;19.30;;
29466;SDS011;60968;37.490;-122.288;2023-05-16T12:07:11;34.90;;;17.30;;
29466;SDS011;60968;37.490;-122.288;2023-05-16T12:10:13;84.43;;;18.57;;
29466;SDS011;60968;37.490;-122.288;2023-05-16T12:13:15;37.60;;;18.60;;
29466;SDS011;60968;37.490;-122.288;2023-05-16T12:16:17;164.13;;;21.93;;
29466;SDS011;60968;37.490;-122.288;2023-05-16T12:19:18;54.10;;;20.40;;
29466;SDS011;60968;37.490;-122.288;2023-05-16T12:22:20;48.77;;;20.63;;
29466;SDS011;60968;37.490;-122.288;2023-05-16T12:28:23;34.20;;;19.17;;
29466;SDS011;60968;37.490;-122.288;2023-05-16T12:31:24;28.97;;;17.67;;
29466;SDS011;60968;37.490;-122.288;2023-05-16T12:34:27;59.60;;;19.90;;
29466;SDS011;60968;37.490;-122.288;2023-05-16T12:37:29;27.50;;;17.37;;
29466;SDS011;60968;37.490;-122.288;2023-05-16T12:40:29;223.20;;;21.47;;
29466;SDS011;60968;37.490;-122.288;2023-05-16T12:43:31;51.60;;;18.83;;
29466;SDS011;60968;37.490;-122.288;2023-05-16T12:46:31;148.40;;;20.03;;
29466;SDS011;60968;37.490;-122.288;2023-05-16T12:49:32;154.47;;;22.20;;
29466;SDS011;60968;37.490;-122.288;2023-05-16T12:52:33;53.23;;;20.30;;
29466;SDS011;60968;37.490;-122.288;2023-05-16T12:55:34;31.37;;;17.63;;
29466;SDS011;60968;37.490;-122.288;2023-05-16T12:58:35;97.50;;;19.00;;
29466;SDS011;60968;37.490;-122.288;2023-05-16T13:01:36;67.47;;;15.73;;
29466;SDS011;60968;37.490;-122.288;2023-05-16T13:04:37;86.30;;;17.47;;
29466;SDS011;60968;37.490;-122.288;2023-05-16T13:07:37;30.83;;;16.07;;
29466;SDS011;60968;37.490;-122.288;2023-05-16T13:10:38;155.67;;;18.80;;
29466;SDS011;60968;37.490;-122.288;2023-05-16T13:13:39;284.40;;;21.80;;
29466;SDS011;60968;37.490;-122.288;2023-05-16T13:16:40;204.70;;;18.50;;
29466;SDS011;60968;37.490;-122.288;2023-05-16T13:19:41;104.83;;;15.57;;
29466;SDS011;60968;37.490;-122.288;2023-05-16T13:22:42;220.70;;;19.03;;
29466;SDS011;60968;37.490;-122.288;2023-05-16T13:25:44;228.17;;;19.23;;
29466;SDS011;60968;37.490;-122.288;2023-05-16T13:28:44;352.40;;;25.83;;
29466;SDS011;60968;37.490;-122.288;2023-05-16T13:31:45;150.60;;;16.73;;
29466;SDS011;60968;37.490;-122.288;2023-05-16T13:34:46;87.83;;;16.20;;
29466;SDS011;60968;37.490;-122.288;2023-05-16T13:37:47;49.63;;;14.60;;
29466;SDS011;60968;37.490;-122.288;2023-05-16T13:40:48;204.43;;;16.53;;
29466;SDS011;60968;37.490;-122.288;2023-05-16T13:43:49;40.93;;;14.57;;
29466;SDS011;60968;37.490;-122.288;2023-05-16T13:46:50;65.30;;;14.60;;
29466;SDS011;60968;37.490;-122.288;2023-05-16T13:49:51;61.03;;;14.37;;
29466;SDS011;60968;37.490;-122.288;2023-05-16T13:52:52;20.87;;;11.60;;
29466;SDS011;60968;37.490;-122.288;2023-05-16T13:55:53;27.10;;;13.27;;
29466;SDS011;60968;37.490;-122.288;2023-05-16T13:58:53;67.37;;;15.07;;
29466;SDS011;60968;37.490;-122.288;2023-05-16T14:01:54;145.27;;;16.77;;
29466;SDS011;60968;37.490;-122.288;2023-05-16T14:04:55;17.70;;;12.13;;
29466;SDS011;60968;37.490;-122.288;2023-05-16T14:07:56;30.40;;;12.50;;
29466;SDS011;60968;37.490;-122.288;2023-05-16T14:10:57;25.67;;;13.57;;
29466;SDS011;60968;37.490;-122.288;2023-05-16T14:13:57;19.70;;;12.50;;
29466;SDS011;60968;37.490;-122.288;2023-05-16T14:16:58;18.17;;;11.27;;
29466;SDS011;60968;37.490;-122.288;2023-05-16T14:19:59;17.07;;;11.27;;
29466;SDS011;60968;37.490;-122.288;2023-05-16T14:23:00;19.00;;;11.77;;
29466;SDS011;60968;37.490;-122.288;2023-05-16T14:26:01;16.97;;;11.83;;
29466;SDS011;60968;37.490;-122.288;2023-05-16T14:29:02;43.33;;;13.40;;
29466;SDS011;60968;37.490;-122.288;2023-05-16T14:32:03;20.20;;;11.83;;
29466;SDS011;60968;37.490;-122.288;2023-05-16T14:35:04;16.90;;;11.37;;
29466;SDS011;60968;37.490;-122.288;2023-05-16T14:38:05;21.13;;;11.47;;
29466;SDS011;60968;37.490;-122.288;2023-05-16T14:41:06;20.73;;;11.53;;
29466;SDS011;60968;37.490;-122.288;2023-05-16T14:44:07;21.90;;;11.60;;
29466;SDS011;60968;37.490;-122.288;2023-05-16T14:47:08;16.77;;;10.40;;
29466;SDS011;60968;37.490;-122.288;2023-05-16T14:50:09;24.77;;;11.70;;
29466;SDS011;60968;37.490;-122.288;2023-05-16T14:53:10;16.23;;;9.60;;
29466;SDS011;60968;37.490;-122.288;2023-05-16T14:56:11;18.37;;;10.00;;
29466;SDS011;60968;37.490;-122.288;2023-05-16T14:59:12;14.93;;;9.43;;
29466;SDS011;60968;37.490;-122.288;2023-05-16T15:02:12;14.43;;;9.83;;
29466;SDS011;60968;37.490;-122.288;2023-05-16T15:05:13;16.43;;;8.47;;
29466;SDS011;60968;37.490;-122.288;2023-05-16T15:08:14;16.57;;;8.40;;
29466;SDS011;60968;37.490;-122.288;2023-05-16T15:11:15;14.60;;;8.73;;
29466;SDS011;60968;37.490;-122.288;2023-05-16T15:14:16;14.83;;;8.97;;
29466;SDS011;60968;37.490;-122.288;2023-05-16T15:17:17;17.07;;;9.97;;
29466;SDS011;60968;37.490;-122.288;2023-05-16T15:20:17;12.57;;;8.30;;
29466;SDS011;60968;37.490;-122.288;2023-05-16T15:23:18;10.03;;;6.33;;
29466;SDS011;60968;37.490;-122.288;2023-05-16T15:26:19;10.37;;;7.00;;
29466;SDS011;60968;37.490;-122.288;2023-05-16T15:29:20;9.40;;;5.93;;
29466;SDS011;60968;37.490;-122.288;2023-05-16T15:32:23;8.10;;;6.20;;
29466;SDS011;60968;37.490;-122.288;2023-05-16T15:35:24;12.30;;;5.93;;
29466;SDS011;60968;37.490;-122.288;2023-05-16T15:38:24;8.27;;;4.97;;
29466;SDS011;60968;37.490;-122.288;2023-05-16T15:41:26;7.13;;;4.90;;
29466;SDS011;60968;37.490;-122.288;2023-05-16T15:44:27;7.20;;;5.22;;
29466;SDS011;60968;37.490;-122.288;2023-05-16T15:47:27;8.25;;;5.05;;
29466;SDS011;60968;37.490;-122.288;2023-05-16T15:50:28;10.80;;;4.55;;
29466;SDS011;60968;37.490;-122.288;2023-05-16T15:53:29;4.22;;;3.80;;
29466;SDS011;60968;37.490;-122.288;2023-05-16T15:56:30;6.70;;;4.32;;
29466;SDS011;60968;37.490;-122.288;2023-05-16T15:59:31;6.07;;;4.40;;
29466;SDS011;60968;37.490;-122.288;2023-05-16T16:02:32;7.18;;;4.10;;
29466;SDS011;60968;37.490;-122.288;2023-05-16T16:05:33;10.45;;;4.82;;
29466;SDS011;60968;37.490;-122.288;2023-05-16T16:08:34;6.15;;;3.95;;
29466;SDS011;60968;37.490;-122.288;2023-05-16T16:11:35;5.35;;;3.80;;
29466;SDS011;60968;37.490;-122.288;2023-05-16T16:14:36;7.57;;;4.20;;
29466;SDS011;60968;37.490;-122.288;2023-05-16T16:17:36;5.03;;;4.53;;
29466;SDS011;60968;37.490;-122.288;2023-05-16T16:20:37;4.50;;;4.10;;
29466;SDS011;60968;37.490;-122.288;2023-05-16T16:23:39;5.80;;;4.40;;
29466;SDS011;60968;37.490;-122.288;2023-05-16T16:26:40;6.85;;;3.95;;
29466;SDS011;60968;37.490;-122.288;2023-05-16T16:29:42;5.60;;;4.40;;
29466;SDS011;60968;37.490;-122.288;2023-05-16T16:32:42;4.97;;;4.35;;
29466;SDS011;60968;37.490;-122.288;2023-05-16T16:35:43;9.05;;;5.10;;
29466;SDS011;60968;37.490;-122.288;2023-05-16T16:38:44;8.55;;;4.78;;
29466;SDS011;60968;37.490;-122.288;2023-05-16T16:41:45;7.47;;;4.35;;
29466;SDS011;60968;37.490;-122.288;2023-05-16T16:44:46;7.75;;;4.88;;
29466;SDS011;60968;37.490;-122.288;2023-05-16T16:47:47;6.57;;;4.13;;
29466;SDS011;60968;37.490;-122.288;2023-05-16T16:50:47;8.15;;;4.55;;
29466;SDS011;60968;37.490;-122.288;2023-05-16T16:53:48;11.23;;;4.68;;
29466;SDS011;60968;37.490;-122.288;2023-05-16T16:56:50;9.18;;;4.82;;
29466;SDS011;60968;37.490;-122.288;2023-05-16T16:59:51;9.45;;;4.45;;
29466;SDS011;60968;37.490;-122.288;2023-05-16T17:02:52;7.80;;;4.65;;
29466;SDS011;60968;37.490;-122.288;2023-05-16T17:05:52;4.88;;;4.40;;
29466;SDS011;60968;37.490;-122.288;2023-05-16T17:08:53;11.20;;;4.32;;
29466;SDS011;60968;37.490;-122.288;2023-05-16T17:11:54;7.05;;;4.72;;
29466;SDS011;60968;37.490;-122.288;2023-05-16T17:14:55;5.65;;;5.10;;
29466;SDS011;60968;37.490;-122.288;2023-05-16T17:17:56;5.75;;;4.63;;
29466;SDS011;60968;37.490;-122.288;2023-05-16T17:20:57;10.60;;;5.20;;
29466;SDS011;60968;37.490;-122.288;2023-05-16T17:23:58;9.85;;;5.10;;
29466;SDS011;60968;37.490;-122.288;2023-05-16T17:26:59;9.00;;;5.20;;
29466;SDS011;60968;37.490;-122.288;2023-05-16T17:30:00;7.38;;;5.32;;
29466;SDS011;60968;37.490;-122.288;2023-05-16T17:33:01;9.80;;;6.03;;
29466;SDS011;60968;37.490;-122.288;2023-05-16T17:36:02;10.88;;;5.22;;
29466;SDS011;60968;37.490;-122.288;2023-05-16T17:39:03;7.75;;;5.28;;
29466;SDS011;60968;37.490;-122.288;2023-05-16T17:42:04;9.95;;;6.07;;